createdAt,value
2023-03-22T00:02:36.511Z,7.07
2023-03-22T00:05:40.037Z,7.05
2023-03-22T00:08:42.023Z,7.05
2023-03-22T00:11:43.860Z,7.06
2023-03-22T00:14:45.610Z,7.09
2023-03-22T00:17:47.794Z,7.02
2023-03-22T00:20:51.041Z,6.95
2023-03-22T00:23:52.874Z,6.85
2023-03-22T00:26:54.593Z,6.78
2023-03-22T00:29:56.220Z,6.73
2023-03-22T00:32:58.062Z,6.67
2023-03-22T00:36:06.671Z,6.62
2023-03-22T00:39:08.804Z,6.58
2023-03-22T00:42:11.112Z,6.53
2023-03-22T00:45:13.327Z,6.51
2023-03-22T00:48:15.010Z,6.50
2023-03-22T00:51:18.183Z,6.51
2023-03-22T00:54:20.293Z,6.47
2023-03-22T00:57:23.211Z,6.46
2023-03-22T01:00:25.389Z,6.49
2023-03-22T01:03:27.148Z,6.59
2023-03-22T01:06:29.675Z,6.70
2023-03-22T01:09:33.736Z,6.83
2023-03-22T01:12:36.000Z,6.98
2023-03-22T01:15:37.898Z,7.07
2023-03-22T01:18:40.061Z,7.08
2023-03-22T01:21:42.602Z,7.07
2023-03-22T01:24:44.392Z,7.12
2023-03-22T01:27:46.175Z,7.16
2023-03-22T01:30:47.841Z,7.23
2023-03-22T01:33:49.495Z,7.28
2023-03-22T01:36:51.268Z,7.31
2023-03-22T01:39:56.730Z,7.37
2023-03-22T01:42:59.032Z,7.46
2023-03-22T01:46:01.579Z,7.47
2023-03-22T01:49:06.529Z,7.49
2023-03-22T01:52:14.778Z,7.49
2023-03-22T01:55:41.125Z,7.47
2023-03-22T01:58:48.280Z,7.45
2023-03-22T02:01:53.730Z,7.43
2023-03-22T02:04:58.078Z,7.37
2023-03-22T02:08:04.370Z,7.32
2023-03-22T02:11:42.186Z,7.27
2023-03-22T02:15:30.590Z,7.27
2023-03-22T02:19:32.056Z,7.27
2023-03-22T02:22:39.452Z,7.27
2023-03-22T02:25:47.166Z,7.31
2023-03-22T02:28:57.651Z,7.38
2023-03-22T02:32:23.772Z,7.44
2023-03-22T02:36:03.372Z,7.45
2023-03-22T02:39:32.711Z,7.40
2023-03-22T02:42:45.019Z,7.38
2023-03-22T02:45:57.277Z,7.40
2023-03-22T02:49:13.850Z,7.42
2023-03-22T02:52:21.590Z,7.52
2023-03-22T02:55:35.323Z,7.57
2023-03-22T02:58:53.128Z,7.50
2023-03-22T03:01:59.092Z,7.47
2023-03-22T03:05:01.592Z,7.50
2023-03-22T03:08:04.312Z,7.52
2023-03-22T03:11:08.791Z,7.57
2023-03-22T03:14:24.550Z,7.61
2023-03-22T03:17:58.305Z,7.64
2023-03-22T03:21:25.935Z,7.69
2023-03-22T03:24:51.381Z,7.66
2023-03-22T03:28:31.559Z,7.66
2023-03-22T03:31:33.641Z,7.64
2023-03-22T03:34:52.699Z,7.63
2023-03-22T03:38:03.372Z,7.61
2023-03-22T03:41:11.312Z,7.63
2023-03-22T03:44:14.296Z,7.60
2023-03-22T03:47:16.830Z,7.62
2023-03-22T03:50:20.437Z,7.63
2023-03-22T03:53:22.409Z,7.64
2023-03-22T03:56:24.207Z,7.63
2023-03-22T03:59:28.560Z,7.59
2023-03-22T04:02:31.801Z,7.54
2023-03-22T04:05:35.565Z,7.50
2023-03-22T04:08:37.313Z,7.47
2023-03-22T04:11:39.363Z,7.46
2023-03-22T04:14:41.869Z,7.46
2023-03-22T04:17:53.892Z,7.45
2023-03-22T04:20:58.216Z,7.48
2023-03-22T04:24:02.943Z,7.49
2023-03-22T04:27:09.998Z,7.50
2023-03-22T04:30:24.802Z,7.57
2023-03-22T04:33:39.603Z,7.63
2023-03-22T04:36:52.610Z,7.65
2023-03-22T04:40:01.324Z,7.64
2023-03-22T04:43:21.424Z,7.65
2023-03-22T04:46:36.873Z,7.68
2023-03-22T04:49:41.821Z,7.67
2023-03-22T04:52:43.671Z,7.65
2023-03-22T04:55:46.039Z,7.65
2023-03-22T04:58:48.103Z,7.68
2023-03-22T05:01:51.751Z,7.68
2023-03-22T05:04:57.478Z,7.68
2023-03-22T05:08:07.893Z,7.71
2023-03-22T05:11:13.777Z,7.68
2023-03-22T05:14:19.453Z,7.70
2023-03-22T05:17:21.722Z,7.75
2023-03-22T05:20:25.645Z,7.75
2023-03-22T05:23:42.789Z,7.75
2023-03-22T05:26:46.394Z,7.76
2023-03-22T05:29:49.842Z,7.82
2023-03-22T05:33:03.412Z,7.82
2023-03-22T05:36:09.489Z,7.86
2023-03-22T05:39:20.413Z,7.91
2023-03-22T05:42:22.084Z,7.97
2023-03-22T05:45:24.165Z,8.02
2023-03-22T05:48:39.057Z,8.04
2023-03-22T05:51:42.666Z,8.04
2023-03-22T05:54:46.773Z,8.06
2023-03-22T05:57:53.840Z,8.08
2023-03-22T06:01:00.906Z,8.11
2023-03-22T06:04:21.278Z,8.17
2023-03-22T06:07:29.122Z,8.30
2023-03-22T06:10:35.935Z,8.30
2023-03-22T06:13:38.041Z,8.30
2023-03-22T06:16:41.384Z,8.29
2023-03-22T06:19:43.074Z,8.32
2023-03-22T06:22:46.319Z,8.39
2023-03-22T06:25:48.177Z,8.44
2023-03-22T06:28:51.231Z,8.51
2023-03-22T06:31:53.364Z,8.63
2023-03-22T06:34:55.385Z,8.73
2023-03-22T06:37:58.892Z,8.88
2023-03-22T06:41:00.788Z,9.01
2023-03-22T06:44:02.949Z,9.14
2023-03-22T06:47:37.890Z,9.35
2023-03-22T06:50:44.121Z,9.49
2023-03-22T06:53:49.412Z,9.64
2023-03-22T06:56:51.146Z,9.70
2023-03-22T06:59:52.856Z,9.69
2023-03-22T07:02:54.871Z,9.62
2023-03-22T07:06:14.732Z,9.47
2023-03-22T07:09:20.760Z,9.35
2023-03-22T07:12:24.893Z,9.28
2023-03-22T07:15:27.067Z,9.33
2023-03-22T07:18:35.913Z,9.49
2023-03-22T07:21:37.770Z,9.64
2023-03-22T07:24:54.053Z,9.88
2023-03-22T07:28:00.444Z,10.11
2023-03-22T07:31:10.024Z,10.32
2023-03-22T07:34:38.016Z,10.44
2023-03-22T07:37:46.105Z,10.53
2023-03-22T07:40:59.799Z,10.59
2023-03-22T07:44:19.233Z,10.67
2023-03-22T07:47:40.734Z,10.81
2023-03-22T07:50:56.491Z,11.03
2023-03-22T07:54:01.576Z,11.33
2023-03-22T07:57:05.381Z,11.59
2023-03-22T08:00:11.151Z,11.82
2023-03-22T08:03:25.396Z,11.99
2023-03-22T08:06:43.794Z,12.08
2023-03-22T08:09:46.147Z,12.05
2023-03-22T08:12:48.120Z,12.02
2023-03-22T08:16:02.284Z,11.98
2023-03-22T08:19:06.807Z,11.97
2023-03-22T08:22:11.985Z,11.95
2023-03-22T08:25:33.635Z,11.92
2023-03-22T08:28:42.511Z,11.94
2023-03-22T08:31:45.176Z,11.96
2023-03-22T08:34:47.448Z,12.00
2023-03-22T08:37:54.829Z,12.10
2023-03-22T08:40:59.697Z,12.25
2023-03-22T08:44:01.922Z,12.34
2023-03-22T08:47:05.593Z,12.32
2023-03-22T08:50:09.264Z,12.30
2023-03-22T08:53:22.315Z,12.31
2023-03-22T08:56:38.222Z,12.39
2023-03-22T08:59:58.600Z,12.54
2023-03-22T09:03:18.764Z,12.67
2023-03-22T09:06:20.699Z,12.86
2023-03-22T09:09:22.848Z,13.02
2023-03-22T09:12:27.840Z,13.19
2023-03-22T09:15:29.865Z,13.13
2023-03-22T09:18:47.169Z,13.16
2023-03-22T09:21:55.581Z,13.33
2023-03-22T09:25:13.406Z,13.41
2023-03-22T09:28:19.297Z,13.54
2023-03-22T09:31:21.251Z,13.66
2023-03-22T09:34:32.844Z,13.81
2023-03-22T09:37:35.465Z,13.90
2023-03-22T09:40:43.802Z,14.02
2023-03-22T09:43:54.082Z,14.02
2023-03-22T09:47:00.105Z,14.11
2023-03-22T09:50:13.167Z,14.26
2023-03-22T09:53:17.456Z,14.27
2023-03-22T09:56:31.838Z,14.19
2023-03-22T09:59:49.697Z,14.10
2023-03-22T10:03:19.159Z,13.90
2023-03-22T10:06:24.827Z,13.66
2023-03-22T10:09:41.218Z,13.63
2023-03-22T10:12:46.943Z,13.68
2023-03-22T10:16:16.989Z,13.92
2023-03-22T10:19:35.668Z,14.19
2023-03-22T10:22:44.076Z,14.46
2023-03-22T10:25:47.378Z,14.74
2023-03-22T10:29:13.676Z,14.99
2023-03-22T10:32:54.685Z,14.93
2023-03-22T10:36:01.352Z,15.13
2023-03-22T10:39:28.613Z,15.35
2023-03-22T10:42:31.616Z,15.45
2023-03-22T10:45:36.867Z,15.86
2023-03-22T10:48:44.093Z,15.97
2023-03-22T10:51:56.756Z,16.00
2023-03-22T10:55:03.009Z,15.82
2023-03-22T10:58:19.662Z,15.62
2023-03-22T11:01:36.995Z,15.45
2023-03-22T11:04:39.081Z,15.51
2023-03-22T11:07:44.676Z,15.70
2023-03-22T11:10:51.372Z,15.77
2023-03-22T11:14:14.350Z,15.84
2023-03-22T11:17:23.294Z,15.88
2023-03-22T11:20:25.276Z,15.82
2023-03-22T11:23:29.954Z,15.73
2023-03-22T11:26:38.812Z,15.69
2023-03-22T11:29:49.159Z,15.58
2023-03-22T11:33:01.706Z,15.23
2023-03-22T11:36:21.486Z,15.18
2023-03-22T11:39:30.224Z,15.17
2023-03-22T11:42:34.802Z,15.17
2023-03-22T11:45:41.406Z,15.06
2023-03-22T11:48:45.327Z,14.92
2023-03-22T11:51:47.534Z,14.88
2023-03-22T11:54:50.285Z,15.05
2023-03-22T11:57:55.892Z,15.13
2023-03-22T12:01:01.779Z,15.21
2023-03-22T12:04:08.867Z,15.07
2023-03-22T12:07:16.238Z,15.06
2023-03-22T12:10:42.364Z,15.00
2023-03-22T12:13:50.154Z,15.06
2023-03-22T12:17:01.051Z,15.19
2023-03-22T12:20:10.962Z,15.32
2023-03-22T12:23:16.660Z,15.39
2023-03-22T12:26:24.072Z,15.54
2023-03-22T12:29:27.853Z,15.36
2023-03-22T12:32:38.668Z,15.51
2023-03-22T12:35:45.208Z,15.49
2023-03-22T12:38:53.950Z,15.38
2023-03-22T12:42:01.284Z,15.37
2023-03-22T12:45:11.386Z,15.42
2023-03-22T12:48:20.930Z,15.33
2023-03-22T12:51:22.994Z,15.22
2023-03-22T12:54:26.088Z,15.24
2023-03-22T12:57:28.557Z,15.31
2023-03-22T13:00:58.749Z,15.45
2023-03-22T13:04:43.347Z,15.43
2023-03-22T13:07:48.009Z,15.67
2023-03-22T13:10:58.030Z,15.92
2023-03-22T13:13:59.809Z,16.08
2023-03-22T13:17:01.827Z,16.01
2023-03-22T13:20:08.566Z,15.96
2023-03-22T13:23:25.020Z,15.95
2023-03-22T13:26:57.354Z,15.81
2023-03-22T13:29:59.937Z,15.76
2023-03-22T13:33:13.605Z,15.57
2023-03-22T13:36:32.129Z,15.31
2023-03-22T13:39:36.473Z,15.06
2023-03-22T13:42:40.399Z,14.83
2023-03-22T13:46:25.480Z,14.51
2023-03-22T13:49:51.244Z,14.35
2023-03-22T13:52:59.021Z,14.31
2023-03-22T13:56:07.098Z,14.31
2023-03-22T13:59:19.168Z,14.16
2023-03-22T14:02:33.963Z,14.16
2023-03-22T14:05:38.809Z,14.18
2023-03-22T14:08:44.328Z,14.02
2023-03-22T14:11:58.430Z,13.76
2023-03-22T14:15:06.799Z,13.53
2023-03-22T14:18:32.896Z,13.35
2023-03-22T14:21:39.118Z,12.99
